Flight Track Log - Related Links

Times and Time Zones

All times are in EST time to prevent confusion due to time zone crossing. See the PDT4207 flight status page for this flight to view local times or setup timezone preferences in your user account.

Time Position Orientation Groundspeed Altitude Reporting Facility
EST Latitude Longitude Course Direction KTS MPH feet Rate Location/Type
Mon 09:38:24 PM 39.8833 -75.2333 347° North 98 113 800  Level Philadelphia TRACON
Mon 09:39:06 PM 39.9000 -75.2667 303° West 134 154 1,700 1,412 Climbing Philadelphia TRACON
Mon 09:40:06 PM 39.9000 -75.3333 270° West 169 194 3,200 1,650 Climbing Philadelphia TRACON
Mon 09:41:00 PM 40.0653 -75.2999 347° North  Level Estimated
Mon 09:41:06 PM 39.9167 -75.3833 294° West 181 208 5,000  Level Philadelphia TRACON
Mon 09:42:00 PM 40.1296 -75.3197 347° North  Level Estimated
Mon 09:42:06 PM 39.9167 -75.4500 270° West 172 198 6,800  Level Philadelphia TRACON
Mon 09:43:00 PM 40.1940 -75.3395 347° North  Level Estimated
Mon 09:43:06 PM 39.9667 -75.4833 333° Northwest 170 196 8,400  Level Philadelphia TRACON
Mon 09:44:07 PM 40.0167 -75.4833 360° North 197 227 9,500 1,512 Climbing Philadelphia TRACON
Mon 09:45:13 PM 40.0622 -75.5061 339° North 182 209 11,600 1,181 Climbing New York Center
Mon 09:46:14 PM 40.1172 -75.5269 344° North 198 228 12,000 197 Climbing New York Center
Mon 09:47:15 PM 40.1800 -75.5453 347° North 230 265 12,000  Level New York Center
Mon 09:48:16 PM 40.2467 -75.5569 352° North 235 270 12,000  Level New York Center
Mon 09:49:18 PM 40.3147 -75.5717 351° North 236 272 12,000  Level New York Center
Mon 09:50:19 PM 40.3767 -75.5844 351° North 236 272 12,000  Level New York Center
Mon 09:51:20 PM 40.4439 -75.5986 351° North 235 270 12,000  Level New York Center
Mon 09:52:21 PM 40.5119 -75.6125 351° North 235 270 12,000  Level New York Center
Mon 09:53:22 PM 40.5750 -75.6253 351° North 235 270 12,000  Level New York Center
Mon 09:54:23 PM 40.6436 -75.6397 351° North 236 272 12,000  Level New York Center
Mon 09:55:25 PM 40.7119 -75.6544 351° North 236 272 12,000  Level New York Center
Mon 09:56:26 PM 40.7747 -75.6681 351° North 236 272 12,000  Level New York Center
Mon 09:57:27 PM 40.8417 -75.6825 351° North 235 270 12,000  Level New York Center
Mon 09:58:28 PM 40.9042 -75.6967 350° North 235 270 12,000  Level New York Center
Mon 09:59:29 PM 40.9722 -75.7111 351° North 235 270 12,000  Level New York Center
Mon 10:00:30 PM 41.0369 -75.7239 352° North 237 273 12,000  Level New York Center
Mon 10:01:31 PM 41.1056 -75.7392 350° North 237 273 12,000  Level New York Center
Mon 10:02:32 PM 41.1747 -75.7542 351° North 238 274 12,000 49 Level New York Center
Mon 10:03:33 PM 41.2392 -75.7678 351° North 239 275 12,100 49 Climbing New York Center
Mon 10:04:34 PM 41.3039 -75.7819 351° North 239 275 12,100  Level New York Center
Mon 10:05:35 PM 41.3700 -75.7969 350° North 240 276 12,100  Level New York Center
Mon 10:06:36 PM 41.4353 -75.8094 352° North 240 276 12,100 -49 Level New York Center
Mon 10:07:37 PM 41.5008 -75.8247 350° North 240 276 12,000 -590 Descending New York Center
Mon 10:08:38 PM 41.5786 -75.8411 351° North 253 291 10,900 -1,082 Descending New York Center
Mon 10:09:39 PM 41.6522 -75.8572 351° North 254 292 9,800 -885 Descending New York Center
Mon 10:10:40 PM 41.7186 -75.8714 351° North 253 291 9,100 -492 Descending New York Center
Mon 10:11:41 PM 41.7881 -75.8875 350° North 243 280 8,800 -787 Descending New York Center
Mon 10:12:42 PM 41.8594 -75.8981 354° North 244 281 7,500 -1,230 Descending New York Center
Mon 10:13:43 PM 41.9247 -75.9025 357° North 244 281 6,300 -1,279 Descending New York Center
Mon 10:14:44 PM 41.9933 -75.9089 356° North 238 274 4,900 -1,131 Descending New York Center
Mon 10:15:45 PM 42.0539 -75.9092 360° North 232 267 4,000 -443 Descending New York Center
Mon 10:16:46 PM 42.0936 -75.9025 North 175 201 4,000 -197 Level New York Center
Mon 10:17:47 PM 42.1261 -75.9064 355° North 137 158 3,600 -541 Descending New York Center
Mon 10:18:48 PM 42.1522 -75.9297 326° Northwest 120 138 2,900 -689 Descending New York Center
Mon 10:19:49 PM 42.1775 -75.9536 325° Northwest 118 136 2,200 -492 Descending New York Center
Mon 10:20:50 PM 42.2072 -75.9778 329° Northwest 114 131 1,900 -295 Descending New York Center

Login

Don't have an account? Register now (free) for customized features, flight alerts, and more!